Time;durP1;ratioP1;P1;durP2;ratioP2;P2;SDS_P1;SDS_P2;PMS_P1;PMS_P2;Temp;Humidity;BMP_temperature;BMP_pressure;BME280_temperature;BME280_humidity;BME280_pressure;Samples;Min_cycle;Max_cycle;Signal;HPM_P1;HPM_P2
2023/04/29 00:00:48;;;;;;;65.28;39.97;;;10.00;99.90;;;;;;5142443;27;20042;-58
2023/04/29 00:03:13;;;;;;;67.40;40.22;;;10.00;99.90;;;;;;5165737;27;20034;-55
2023/04/29 00:05:39;;;;;;;71.13;40.60;;;10.00;99.90;;;;;;5173753;27;20353;-58
2023/04/29 00:08:05;;;;;;;65.20;38.47;;;10.00;99.90;;;;;;5173133;27;20051;-60
2023/04/29 00:10:30;;;;;;;66.22;38.08;;;9.90;99.90;;;;;;5173025;27;20618;-56
2023/04/29 00:12:56;;;;;;;63.25;38.22;;;9.90;99.90;;;;;;5172597;27;20035;-57
2023/04/29 00:15:22;;;;;;;56.55;35.15;;;9.90;99.90;;;;;;5143511;27;20030;-56
2023/04/29 00:17:48;;;;;;;52.20;35.15;;;9.90;99.90;;;;;;5154303;27;20045;-55
2023/04/29 00:20:14;;;;;;;58.28;34.15;;;10.00;99.90;;;;;;5167577;27;20431;-55
2023/04/29 00:22:39;;;;;;;53.65;33.42;;;9.90;99.90;;;;;;5165322;27;20412;-57
2023/04/29 00:25:06;;;;;;;51.53;32.72;;;9.90;99.90;;;;;;5125882;27;20043;-57
2023/04/29 00:27:32;;;;;;;48.28;31.45;;;10.00;99.90;;;;;;5164489;27;20038;-56
2023/04/29 00:29:57;;;;;;;50.53;31.80;;;9.90;99.90;;;;;;5152573;27;20045;-60
2023/04/29 00:32:23;;;;;;;48.15;31.65;;;9.90;99.90;;;;;;5140751;27;20031;-58
2023/04/29 00:34:50;;;;;;;52.70;32.55;;;9.90;99.90;;;;;;5142305;27;20046;-57
2023/04/29 00:37:16;;;;;;;53.10;33.80;;;9.90;99.90;;;;;;5165153;27;20557;-59
2023/04/29 00:39:41;;;;;;;49.65;32.88;;;9.90;99.90;;;;;;5173852;27;20030;-56
2023/04/29 00:42:08;;;;;;;53.38;33.08;;;9.90;99.90;;;;;;5166482;27;20046;-56
2023/04/29 00:44:34;;;;;;;45.00;30.77;;;9.90;99.90;;;;;;5152074;27;20031;-56
2023/04/29 00:46:59;;;;;;;50.38;32.00;;;9.90;99.90;;;;;;5154259;27;20034;-57
2023/04/29 00:49:26;;;;;;;53.63;33.08;;;9.90;99.90;;;;;;5157262;27;20046;-54
2023/04/29 00:51:53;;;;;;;54.13;33.58;;;9.90;99.90;;;;;;5138491;27;20034;-58
2023/04/29 00:54:19;;;;;;;51.35;32.42;;;9.90;99.90;;;;;;5150884;27;20508;-57
2023/04/29 00:56:46;;;;;;;42.17;29.52;;;9.80;99.90;;;;;;5135391;27;20047;-58
2023/04/29 00:59:14;;;;;;;43.58;29.67;;;9.90;99.90;;;;;;5132301;27;20453;-56
2023/04/29 01:01:40;;;;;;;46.22;30.27;;;9.90;99.90;;;;;;5143544;27;20102;-57
2023/04/29 01:04:06;;;;;;;41.70;27.73;;;9.90;99.90;;;;;;5131887;27;20046;-56
2023/04/29 01:07:11;;;;;;;41.42;26.77;;;9.80;99.90;;;;;;5133455;27;20050;-58
2023/04/29 01:09:52;;;;;;;45.17;27.65;;;9.80;99.90;;;;;;5117920;27;20494;-54
2023/04/29 01:12:40;;;;;;;39.85;27.27;;;9.80;99.90;;;;;;5132075;27;20039;-56
2023/04/29 01:15:26;;;;;;;43.13;27.48;;;9.80;99.90;;;;;;5131652;27;20494;-56
2023/04/29 01:18:11;;;;;;;41.92;27.40;;;9.70;99.90;;;;;;5132080;27;20043;-55
2023/04/29 01:20:38;;;;;;;45.80;27.33;;;9.80;99.90;;;;;;5131712;27;20079;-56
2023/04/29 01:23:03;;;;;;;44.35;27.98;;;9.80;99.90;;;;;;5131645;27;20121;-58
2023/04/29 01:25:29;;;;;;;47.28;28.10;;;9.80;99.90;;;;;;5138235;27;20546;-54
2023/04/29 01:28:15;;;;;;;40.50;27.48;;;9.70;99.90;;;;;;5135371;27;20047;-58
2023/04/29 01:31:10;;;;;;;47.28;28.90;;;9.70;99.90;;;;;;5136531;27;20039;-57
2023/04/29 01:33:49;;;;;;;40.53;27.17;;;9.70;99.90;;;;;;5123949;27;20550;-55
2023/04/29 01:36:45;;;;;;;44.95;28.05;;;9.70;99.90;;;;;;5130869;27;20027;-56
2023/04/29 01:39:26;;;;;;;42.00;25.83;;;9.70;99.90;;;;;;5143294;27;20419;-56
2023/04/29 01:42:17;;;;;;;43.80;27.50;;;9.60;99.90;;;;;;5145586;27;20050;-56
2023/04/29 01:44:43;;;;;;;40.85;25.73;;;9.70;99.90;;;;;;5131013;27;20042;-55
2023/04/29 01:47:13;;;;;;;39.90;26.95;;;9.60;99.90;;;;;;5133956;27;20027;-53
2023/04/29 01:49:39;;;;;;;44.42;27.70;;;9.70;99.90;;;;;;5138520;27;20091;-59
2023/04/29 01:52:06;;;;;;;42.08;26.40;;;9.60;99.90;;;;;;5130383;27;20436;-57
2023/04/29 01:54:35;;;;;;;41.30;26.02;;;9.60;99.90;;;;;;5136699;27;20421;-55
2023/04/29 01:57:01;;;;;;;48.63;27.45;;;9.60;99.90;;;;;;5128673;27;20039;-59
2023/04/29 01:59:27;;;;;;;39.97;26.70;;;9.60;99.90;;;;;;5130559;27;20031;-60
2023/04/29 02:01:55;;;;;;;41.85;27.27;;;9.60;99.90;;;;;;5129357;27;20092;-55
2023/04/29 02:04:21;;;;;;;48.58;27.23;;;9.60;99.90;;;;;;5128309;27;20079;-54
2023/04/29 02:06:46;;;;;;;44.45;26.90;;;9.60;99.90;;;;;;5128776;27;20066;-56
2023/04/29 02:09:12;;;;;;;42.47;26.77;;;9.50;99.90;;;;;;5130833;27;20077;-58
2023/04/29 02:11:37;;;;;;;42.30;25.45;;;9.50;99.90;;;;;;5130097;27;20040;-58
2023/04/29 02:14:03;;;;;;;39.97;25.30;;;9.50;99.90;;;;;;5129369;27;20114;-55
2023/04/29 02:16:29;;;;;;;41.65;24.77;;;9.60;99.90;;;;;;5129166;27;20077;-53
2023/04/29 02:18:55;;;;;;;43.60;26.33;;;9.60;99.90;;;;;;5129397;27;20038;-58
2023/04/29 02:21:20;;;;;;;44.55;27.42;;;9.50;99.90;;;;;;5128134;27;20103;-57
2023/04/29 02:23:46;;;;;;;44.50;26.75;;;9.60;99.90;;;;;;5128553;27;20074;-55
2023/04/29 02:26:12;;;;;;;44.55;25.73;;;9.50;99.90;;;;;;5128676;28;20044;-52
2023/04/29 02:28:38;;;;;;;44.78;27.08;;;9.50;99.90;;;;;;5111947;28;20043;-57
2023/04/29 02:31:04;;;;;;;45.83;25.40;;;9.50;99.90;;;;;;5129679;28;20031;-57
2023/04/29 02:33:30;;;;;;;44.50;27.42;;;9.50;99.90;;;;;;5128914;28;20371;-55
2023/04/29 02:35:55;;;;;;;46.10;27.45;;;9.50;99.90;;;;;;5129360;27;20094;-54
2023/04/29 02:38:21;;;;;;;40.75;26.13;;;9.50;99.90;;;;;;5129532;27;20418;-53
2023/04/29 02:40:47;;;;;;;46.00;26.75;;;9.50;99.90;;;;;;5127182;28;20129;-57
2023/04/29 02:43:13;;;;;;;47.72;26.27;;;9.50;99.90;;;;;;5128932;28;20113;-56
2023/04/29 02:45:39;;;;;;;45.15;27.42;;;9.50;99.90;;;;;;5128224;28;22112;-56
2023/04/29 02:48:05;;;;;;;43.83;26.55;;;9.50;99.90;;;;;;5130234;27;20490;-56
2023/04/29 02:50:31;;;;;;;43.45;27.45;;;9.50;99.90;;;;;;5130412;27;20482;-55
2023/04/29 02:52:57;;;;;;;46.50;28.42;;;9.50;99.90;;;;;;5132426;27;20390;-58
2023/04/29 02:55:23;;;;;;;43.10;25.88;;;9.40;99.90;;;;;;5166214;27;20054;-53
2023/04/29 02:57:49;;;;;;;45.17;27.95;;;9.50;99.90;;;;;;5157158;27;20043;-56
2023/04/29 03:00:15;;;;;;;48.83;26.58;;;9.50;99.90;;;;;;5172001;27;20114;-56
2023/04/29 03:02:40;;;;;;;48.50;27.17;;;9.40;99.90;;;;;;5175532;27;20329;-58
2023/04/29 03:05:06;;;;;;;49.53;27.30;;;9.40;99.90;;;;;;5176181;27;20042;-55
2023/04/29 03:07:32;;;;;;;45.55;28.00;;;9.40;99.90;;;;;;5176474;27;20034;-56
2023/04/29 03:09:58;;;;;;;43.78;27.67;;;9.40;99.90;;;;;;5175994;27;20038;-58
2023/04/29 03:12:23;;;;;;;48.58;28.13;;;9.40;99.90;;;;;;5156567;27;20102;-56
2023/04/29 03:14:50;;;;;;;45.92;28.42;;;9.40;99.90;;;;;;5174090;27;20061;-58
2023/04/29 03:17:17;;;;;;;46.45;28.83;;;9.30;99.90;;;;;;5167068;27;20039;-56
2023/04/29 03:19:43;;;;;;;45.25;27.40;;;9.30;99.90;;;;;;5171061;27;20045;-58
2023/04/29 03:22:10;;;;;;;43.90;27.30;;;9.30;99.90;;;;;;5176484;27;20392;-56
2023/04/29 03:24:36;;;;;;;48.28;26.75;;;9.30;99.90;;;;;;5156299;27;20081;-58
2023/04/29 03:27:03;;;;;;;44.00;26.23;;;9.30;99.90;;;;;;5174958;27;20086;-56
2023/04/29 03:29:29;;;;;;;44.28;26.05;;;9.20;99.90;;;;;;5135921;27;20396;-57
2023/04/29 03:31:56;;;;;;;38.83;26.40;;;9.20;99.90;;;;;;5137556;27;20047;-57
2023/04/29 03:34:23;;;;;;;39.65;24.15;;;9.20;99.90;;;;;;5169566;27;20049;-53
2023/04/29 03:36:50;;;;;;;46.22;25.80;;;9.20;99.90;;;;;;5175298;27;20057;-54
2023/04/29 03:39:16;;;;;;;39.10;24.73;;;9.10;99.90;;;;;;5168237;27;20474;-56
2023/04/29 03:41:42;;;;;;;38.58;24.40;;;9.00;99.90;;;;;;5157016;27;20079;-58
2023/04/29 03:44:08;;;;;;;42.45;24.08;;;9.10;99.90;;;;;;5139900;27;20066;-55
2023/04/29 03:46:34;;;;;;;38.20;23.88;;;9.00;99.90;;;;;;5171183;27;20433;-52
2023/04/29 03:48:59;;;;;;;36.95;23.25;;;9.10;99.90;;;;;;5173604;27;20089;-55
2023/04/29 03:51:26;;;;;;;43.47;24.00;;;9.10;99.90;;;;;;5170086;27;20030;-55
2023/04/29 03:53:55;;;;;;;37.63;23.65;;;9.00;99.90;;;;;;5172579;27;20081;-57
2023/04/29 03:56:21;;;;;;;43.85;25.20;;;9.00;99.90;;;;;;5173960;27;20500;-54
2023/04/29 03:58:47;;;;;;;43.33;23.95;;;9.00;99.90;;;;;;5175460;27;20130;-55
2023/04/29 04:01:14;;;;;;;40.13;24.88;;;9.00;99.90;;;;;;5174798;27;20117;-56
2023/04/29 04:03:42;;;;;;;40.83;24.80;;;9.00;99.90;;;;;;5175219;27;20118;-56
2023/04/29 04:06:07;;;;;;;41.22;26.90;;;9.00;99.90;;;;;;5136693;27;20042;-58
2023/04/29 04:08:33;;;;;;;39.75;23.38;;;9.00;99.90;;;;;;5134247;27;20035;-55
2023/04/29 04:11:02;;;;;;;43.50;24.83;;;9.10;99.90;;;;;;5134149;27;20031;-52
2023/04/29 04:13:31;;;;;;;45.40;25.23;;;9.00;99.90;;;;;;5133664;27;20125;-57
2023/04/29 04:15:57;;;;;;;42.97;26.42;;;9.00;99.90;;;;;;5136167;27;20047;-53
2023/04/29 04:18:23;;;;;;;51.90;27.90;;;9.10;99.90;;;;;;5156705;27;20038;-56
2023/04/29 04:20:48;;;;;;;51.25;27.10;;;9.10;99.90;;;;;;5134088;27;20035;-58
2023/04/29 04:23:14;;;;;;;46.75;28.15;;;9.00;99.90;;;;;;5133590;27;20039;-58
2023/04/29 04:25:47;;;;;;;47.65;27.55;;;9.00;99.90;;;;;;5155430;27;20416;-55
2023/04/29 04:28:13;;;;;;;48.25;26.75;;;9.10;99.90;;;;;;5161399;27;20063;-57
2023/04/29 04:30:39;;;;;;;46.67;28.45;;;9.00;99.90;;;;;;5133793;27;20059;-56
2023/04/29 04:33:05;;;;;;;48.28;25.63;;;9.00;99.90;;;;;;5133782;27;20039;-55
2023/04/29 04:35:31;;;;;;;45.55;25.65;;;9.00;99.90;;;;;;5133599;27;20043;-55
2023/04/29 04:37:57;;;;;;;44.72;26.05;;;9.00;99.90;;;;;;5133861;27;20047;-57
2023/04/29 04:40:23;;;;;;;51.72;28.35;;;9.00;99.90;;;;;;5149223;27;20504;-57
2023/04/29 04:42:49;;;;;;;45.22;27.10;;;9.00;99.90;;;;;;5135051;27;20180;-57
2023/04/29 04:45:14;;;;;;;46.97;25.90;;;9.00;99.90;;;;;;5158030;27;20035;-55
2023/04/29 04:47:41;;;;;;;49.85;28.17;;;9.00;99.90;;;;;;5150155;27;20092;-57
2023/04/29 04:50:07;;;;;;;48.08;25.95;;;9.00;99.90;;;;;;5155283;27;20038;-59
2023/04/29 04:52:34;;;;;;;48.58;26.27;;;9.00;99.90;;;;;;5174913;27;20134;-60
2023/04/29 04:54:59;;;;;;;46.28;26.20;;;9.10;99.90;;;;;;5155846;27;20129;-59
2023/04/29 04:57:25;;;;;;;48.80;26.67;;;9.00;99.90;;;;;;5174842;27;20121;-54
2023/04/29 04:59:51;;;;;;;50.55;27.58;;;9.10;99.90;;;;;;5164700;27;20137;-56
2023/04/29 05:02:17;;;;;;;45.97;25.42;;;9.00;99.90;;;;;;5133185;27;20391;-56
2023/04/29 05:04:43;;;;;;;46.42;26.20;;;9.10;99.90;;;;;;5132759;27;20387;-58
2023/04/29 05:07:09;;;;;;;47.85;27.20;;;9.00;99.90;;;;;;5133041;27;20371;-57
2023/04/29 05:09:35;;;;;;;49.22;26.88;;;9.10;99.90;;;;;;5132785;27;20035;-59
2023/04/29 05:12:01;;;;;;;46.15;25.08;;;9.10;99.90;;;;;;5132824;27;20177;-56
2023/04/29 05:14:27;;;;;;;43.58;25.52;;;9.10;99.90;;;;;;5154318;27;20054;-56
2023/04/29 05:16:57;;;;;;;45.20;23.10;;;9.10;99.90;;;;;;5174002;27;20042;-57
2023/04/29 05:19:22;;;;;;;45.97;25.17;;;9.10;99.90;;;;;;5174276;27;20385;-59
2023/04/29 05:21:48;;;;;;;44.28;24.77;;;9.20;99.90;;;;;;5155743;27;20034;-56
2023/04/29 05:24:14;;;;;;;45.22;24.52;;;9.20;99.90;;;;;;5155137;27;20035;-59
2023/04/29 05:26:42;;;;;;;42.70;24.27;;;9.20;99.90;;;;;;5167271;27;20034;-58
2023/04/29 05:29:07;;;;;;;38.17;23.52;;;9.20;99.90;;;;;;5172137;27;20038;-58
2023/04/29 05:31:33;;;;;;;41.55;23.20;;;9.20;99.90;;;;;;5172628;27;20441;-55
2023/04/29 05:33:59;;;;;;;41.95;22.85;;;9.20;99.90;;;;;;5172394;27;20042;-55
2023/04/29 05:36:26;;;;;;;35.55;21.15;;;9.20;99.90;;;;;;5172627;27;20038;-59
2023/04/29 05:38:52;;;;;;;36.92;21.60;;;9.20;99.90;;;;;;5159579;27;20078;-60
2023/04/29 05:41:18;;;;;;;35.65;20.88;;;9.20;99.90;;;;;;5142804;27;20065;-54
2023/04/29 05:43:44;;;;;;;37.00;21.60;;;9.30;99.90;;;;;;5173428;27;20038;-59
2023/04/29 05:46:10;;;;;;;39.72;21.33;;;9.30;99.90;;;;;;5140808;27;20065;-57
2023/04/29 05:48:35;;;;;;;40.47;22.00;;;9.30;99.90;;;;;;5164619;27;20062;-55
2023/04/29 05:51:01;;;;;;;41.15;20.75;;;9.30;99.90;;;;;;5162047;27;20473;-53
2023/04/29 05:53:27;;;;;;;37.13;20.67;;;9.30;99.90;;;;;;5150176;27;20045;-60
2023/04/29 05:55:52;;;;;;;36.63;21.00;;;9.40;99.90;;;;;;5138941;27;20047;-56
2023/04/29 05:58:18;;;;;;;37.88;20.10;;;9.40;99.90;;;;;;5172233;27;20536;-55
2023/04/29 06:00:44;;;;;;;33.60;20.50;;;9.40;99.90;;;;;;5139419;27;20366;-56
2023/04/29 06:03:11;;;;;;;37.08;19.00;;;9.40;99.90;;;;;;5173581;27;20493;-56
2023/04/29 06:05:37;;;;;;;33.72;17.75;;;9.40;99.90;;;;;;5171580;27;20045;-59
2023/04/29 06:08:03;;;;;;;27.73;17.15;;;9.50;99.90;;;;;;5172268;27;20038;-53
2023/04/29 06:10:29;;;;;;;33.08;18.45;;;9.50;99.90;;;;;;5173181;27;20074;-57
2023/04/29 06:12:55;;;;;;;31.98;18.02;;;9.60;99.90;;;;;;5155894;27;20070;-59
2023/04/29 06:15:21;;;;;;;31.67;17.08;;;9.60;99.90;;;;;;5151930;27;20034;-56
2023/04/29 06:17:47;;;;;;;27.73;17.35;;;9.60;99.90;;;;;;5166699;27;20034;-57
2023/04/29 06:20:13;;;;;;;27.08;15.80;;;9.70;99.90;;;;;;5152038;27;20084;-57
2023/04/29 06:22:39;;;;;;;26.15;14.68;;;9.70;99.90;;;;;;5150349;27;20054;-60
2023/04/29 06:25:05;;;;;;;28.02;14.35;;;9.70;99.90;;;;;;5173653;27;20504;-58
2023/04/29 06:27:30;;;;;;;24.75;14.13;;;9.70;99.90;;;;;;5175803;27;20031;-56
2023/04/29 06:29:56;;;;;;;21.52;13.07;;;9.80;99.90;;;;;;5176324;27;20438;-58
2023/04/29 06:32:22;;;;;;;23.15;12.50;;;9.80;99.90;;;;;;5175988;27;20042;-55
2023/04/29 06:34:48;;;;;;;28.80;13.55;;;9.80;99.90;;;;;;5176025;27;20109;-60
2023/04/29 06:37:14;;;;;;;22.92;13.02;;;9.90;99.90;;;;;;5177269;27;20103;-59
2023/04/29 06:39:40;;;;;;;21.00;12.50;;;9.90;99.90;;;;;;5175693;27;20552;-58
2023/04/29 06:42:06;;;;;;;22.13;12.43;;;10.00;99.90;;;;;;5135236;27;20034;-57
2023/04/29 06:44:32;;;;;;;20.58;11.82;;;10.00;99.90;;;;;;5159805;27;20046;-58
2023/04/29 06:46:57;;;;;;;20.50;11.80;;;10.00;99.90;;;;;;5175528;27;20046;-56
2023/04/29 06:49:23;;;;;;;19.00;11.40;;;10.00;99.90;;;;;;5177236;27;20049;-58
2023/04/29 06:51:49;;;;;;;21.58;11.48;;;10.10;99.90;;;;;;5176994;27;20485;-56
2023/04/29 06:54:14;;;;;;;19.08;10.43;;;10.10;99.90;;;;;;5175435;27;20416;-55
2023/04/29 06:56:40;;;;;;;20.75;11.30;;;10.20;99.90;;;;;;5165494;27;20030;-55
2023/04/29 06:59:06;;;;;;;22.23;10.57;;;10.20;99.90;;;;;;5152339;27;20434;-58
2023/04/29 07:01:32;;;;;;;19.35;10.00;;;10.30;99.90;;;;;;5129305;27;20447;-56
2023/04/29 07:03:57;;;;;;;18.92;10.77;;;10.30;99.90;;;;;;5152983;27;20042;-57
2023/04/29 07:06:23;;;;;;;16.52;9.68;;;10.30;99.90;;;;;;5154194;27;20027;-55
2023/04/29 07:08:49;;;;;;;19.50;10.27;;;10.30;99.90;;;;;;5154498;27;20543;-55
2023/04/29 07:11:15;;;;;;;17.25;10.75;;;10.40;99.90;;;;;;5150861;27;20058;-54
2023/04/29 07:13:40;;;;;;;15.45;9.48;;;10.40;99.90;;;;;;5151780;27;20038;-56
2023/04/29 07:16:20;;;;;;;18.40;9.07;;;10.40;99.90;;;;;;5130172;27;20110;-59
2023/04/29 07:18:49;;;;;;;16.15;9.98;;;10.40;99.90;;;;;;5152618;27;20070;-55
2023/04/29 07:21:15;;;;;;;17.80;9.98;;;10.40;99.90;;;;;;5151037;27;20126;-54
2023/04/29 07:23:40;;;;;;;16.27;9.75;;;10.50;99.90;;;;;;5152224;27;20221;-54
2023/04/29 07:26:14;;;;;;;16.25;9.30;;;10.50;99.90;;;;;;5152466;27;20035;-56
2023/04/29 07:28:41;;;;;;;14.43;9.13;;;10.60;99.90;;;;;;5153415;27;20041;-55
2023/04/29 07:31:07;;;;;;;16.40;8.95;;;10.60;99.90;;;;;;5153058;27;20101;-55
2023/04/29 07:33:33;;;;;;;16.33;9.43;;;10.70;99.90;;;;;;5151222;27;20038;-55
2023/04/29 07:35:59;;;;;;;15.75;9.40;;;10.70;99.90;;;;;;5151725;27;20039;-55
2023/04/29 07:38:25;;;;;;;18.15;9.85;;;10.70;99.90;;;;;;5152353;27;20038;-55
2023/04/29 07:40:51;;;;;;;14.20;9.70;;;10.70;99.90;;;;;;5155233;27;20503;-55
2023/04/29 07:43:17;;;;;;;17.67;9.45;;;10.80;99.90;;;;;;5151654;27;20037;-57
2023/04/29 07:45:42;;;;;;;15.70;8.88;;;10.70;99.90;;;;;;5128468;27;20482;-58
2023/04/29 07:48:08;;;;;;;16.00;9.35;;;10.80;99.90;;;;;;5151342;27;20026;-54
2023/04/29 07:50:35;;;;;;;16.75;8.70;;;10.80;99.90;;;;;;5148856;27;20042;-59
2023/04/29 07:53:01;;;;;;;16.23;9.02;;;10.80;99.90;;;;;;5149307;27;20041;-58
2023/04/29 07:55:28;;;;;;;16.85;9.13;;;10.90;99.90;;;;;;5151389;27;20080;-59
2023/04/29 07:57:55;;;;;;;15.13;9.32;;;11.00;99.90;;;;;;5150262;27;20517;-58
2023/04/29 08:00:22;;;;;;;13.93;8.73;;;11.00;99.90;;;;;;5153160;27;20064;-58
2023/04/29 08:02:51;;;;;;;14.93;8.50;;;11.10;99.90;;;;;;5127894;27;20048;-59
2023/04/29 08:05:18;;;;;;;15.70;8.50;;;11.20;99.90;;;;;;5150265;27;20090;-57
2023/04/29 08:07:43;;;;;;;14.30;8.38;;;11.20;99.90;;;;;;5151528;27;20038;-54
2023/04/29 08:10:09;;;;;;;15.30;8.57;;;11.30;99.90;;;;;;5152580;27;20037;-57
2023/04/29 08:12:35;;;;;;;15.30;9.27;;;11.30;99.90;;;;;;5148615;27;20475;-56
2023/04/29 08:15:01;;;;;;;17.48;8.75;;;11.30;99.90;;;;;;5148861;27;20121;-57
2023/04/29 08:17:27;;;;;;;16.15;9.27;;;11.40;99.90;;;;;;5148166;27;20039;-53
2023/04/29 08:19:53;;;;;;;15.77;9.52;;;11.40;99.90;;;;;;5148297;27;20061;-56
2023/04/29 08:22:18;;;;;;;14.45;9.15;;;11.50;99.90;;;;;;5127787;27;20071;-55
2023/04/29 08:24:44;;;;;;;16.05;9.10;;;11.60;99.90;;;;;;5156344;27;20034;-53
2023/04/29 08:27:10;;;;;;;16.02;9.13;;;11.60;99.90;;;;;;5170762;27;20027;-53
2023/04/29 08:29:36;;;;;;;16.02;9.48;;;11.70;99.90;;;;;;5154514;27;20036;-57
2023/04/29 08:32:02;;;;;;;17.02;8.68;;;11.80;99.90;;;;;;5167065;27;20030;-51
2023/04/29 08:34:30;;;;;;;15.63;10.02;;;11.80;99.90;;;;;;5157618;27;20476;-55
2023/04/29 08:36:56;;;;;;;16.48;9.23;;;11.90;99.90;;;;;;5119159;27;20042;-59
2023/04/29 08:39:22;;;;;;;15.98;8.95;;;12.00;99.90;;;;;;5164873;27;20038;-56
2023/04/29 08:41:50;;;;;;;14.00;9.32;;;12.10;99.90;;;;;;5169451;27;20034;-57
2023/04/29 08:44:16;;;;;;;14.80;9.32;;;12.20;99.90;;;;;;5166644;27;20085;-57
2023/04/29 08:46:46;;;;;;;16.00;8.50;;;12.20;99.90;;;;;;5132494;27;20041;-55
2023/04/29 08:49:12;;;;;;;16.13;9.07;;;12.30;99.90;;;;;;5167564;27;20049;-57
2023/04/29 08:51:38;;;;;;;15.05;8.45;;;12.30;99.90;;;;;;5169957;27;20089;-59
2023/04/29 08:54:05;;;;;;;12.98;8.23;;;12.40;99.90;;;;;;5164654;27;20049;-55
2023/04/29 08:56:32;;;;;;;12.98;7.65;;;12.50;99.90;;;;;;5166321;27;20053;-55
2023/04/29 08:59:00;;;;;;;15.70;8.15;;;12.50;99.90;;;;;;5164061;27;20392;-57
2023/04/29 09:01:29;;;;;;;12.70;7.93;;;12.50;99.90;;;;;;5167721;27;20034;-58
2023/04/29 09:04:33;;;;;;;14.77;8.13;;;12.50;99.90;;;;;;5167059;27;20057;-55
2023/04/29 09:06:59;;;;;;;12.80;8.25;;;12.60;99.90;;;;;;5164850;27;20117;-56
2023/04/29 09:09:25;;;;;;;12.18;7.50;;;12.70;99.90;;;;;;5167030;27;20038;-54
2023/04/29 09:11:51;;;;;;;14.10;7.80;;;12.70;99.90;;;;;;5168234;27;20045;-56
2023/04/29 09:14:17;;;;;;;11.95;7.75;;;12.60;99.90;;;;;;5167894;27;20386;-60
2023/04/29 09:16:46;;;;;;;10.45;7.13;;;12.60;99.90;;;;;;5165523;27;20041;-52
2023/04/29 09:19:28;;;;;;;12.65;8.30;;;12.70;99.90;;;;;;5168241;27;20440;-59
2023/04/29 09:21:55;;;;;;;12.85;7.47;;;12.90;99.90;;;;;;5166349;27;20473;-55
2023/04/29 09:24:28;;;;;;;11.73;8.18;;;13.00;99.90;;;;;;5166708;27;20053;-58
2023/04/29 09:26:54;;;;;;;12.50;8.00;;;13.20;99.90;;;;;;5165495;27;20498;-57
2023/04/29 09:29:20;;;;;;;14.63;7.30;;;13.40;99.90;;;;;;5161517;27;20188;-58
2023/04/29 09:31:47;;;;;;;11.85;7.63;;;13.60;99.90;;;;;;5136327;27;20386;-58
2023/04/29 09:34:13;;;;;;;11.30;7.70;;;13.50;99.90;;;;;;5168143;27;20158;-57
2023/04/29 09:36:50;;;;;;;10.45;7.15;;;13.50;99.90;;;;;;5172798;27;20038;-55
2023/04/29 09:39:21;;;;;;;11.88;7.75;;;13.70;99.90;;;;;;5173171;27;20038;-53
2023/04/29 09:41:52;;;;;;;15.15;8.30;;;14.00;99.90;;;;;;5172043;27;20094;-55
2023/04/29 09:44:29;;;;;;;12.82;7.72;;;14.10;99.90;;;;;;5172820;27;20080;-59
2023/04/29 09:47:01;;;;;;;12.02;7.38;;;14.10;99.90;;;;;;5172151;27;20037;-53
2023/04/29 09:49:29;;;;;;;13.70;8.43;;;14.10;99.90;;;;;;5139792;27;20489;-58
2023/04/29 09:52:00;;;;;;;11.57;7.03;;;13.90;99.90;;;;;;5124153;27;20042;-60
2023/04/29 09:54:28;;;;;;;9.93;6.80;;;13.90;99.90;;;;;;5165771;27;20058;-59
2023/04/29 09:56:55;;;;;;;11.20;6.90;;;14.00;99.90;;;;;;5172105;27;20107;-58
2023/04/29 09:59:22;;;;;;;11.50;7.53;;;14.10;99.90;;;;;;5171276;27;20078;-54
2023/04/29 10:01:56;;;;;;;11.85;7.32;;;14.30;99.90;;;;;;5171460;27;20042;-53
2023/04/29 10:04:23;;;;;;;11.15;6.38;;;14.50;99.90;;;;;;5172345;27;20046;-59
2023/04/29 10:06:51;;;;;;;10.38;6.03;;;14.50;99.90;;;;;;5171718;27;20154;-58
2023/04/29 10:09:19;;;;;;;9.10;5.70;;;14.50;99.90;;;;;;5172054;27;20031;-56
2023/04/29 10:11:46;;;;;;;10.48;6.07;;;14.60;99.90;;;;;;5139513;27;20094;-55
2023/04/29 10:14:17;;;;;;;11.05;6.82;;;14.60;99.90;;;;;;5166935;27;20035;-54
2023/04/29 10:16:49;;;;;;;12.23;7.25;;;14.70;99.90;;;;;;5171817;27;20404;-55
2023/04/29 10:19:30;;;;;;;9.60;6.53;;;14.80;99.90;;;;;;5171763;27;20034;-57
2023/04/29 10:21:59;;;;;;;12.38;6.40;;;14.70;99.90;;;;;;5170971;27;20045;-56
2023/04/29 10:24:25;;;;;;;9.93;6.40;;;14.70;99.90;;;;;;5172769;27;20615;-52
2023/04/29 10:26:55;;;;;;;8.82;6.10;;;14.80;99.90;;;;;;5138661;27;20038;-54
2023/04/29 10:29:21;;;;;;;10.88;6.85;;;14.80;99.90;;;;;;5172158;27;20110;-56
2023/04/29 10:31:49;;;;;;;10.70;6.38;;;14.90;99.90;;;;;;5169300;27;20041;-58
2023/04/29 10:34:16;;;;;;;9.40;6.30;;;14.90;99.90;;;;;;5172255;27;20034;-54
2023/04/29 10:36:42;;;;;;;9.15;6.32;;;15.00;99.90;;;;;;5130949;27;20074;-57
2023/04/29 10:39:18;;;;;;;10.50;6.10;;;15.00;99.90;;;;;;5156799;27;20105;-58
2023/04/29 10:41:45;;;;;;;11.60;6.28;;;15.10;99.90;;;;;;5171402;27;20870;-56
2023/04/29 10:44:14;;;;;;;12.77;6.97;;;15.20;99.90;;;;;;5137710;27;20133;-58
2023/04/29 10:46:40;;;;;;;12.00;6.63;;;15.20;99.90;;;;;;5145069;27;20034;-56
2023/04/29 10:49:06;;;;;;;12.05;6.45;;;15.20;99.90;;;;;;5172180;27;20437;-57
2023/04/29 10:51:33;;;;;;;11.05;6.80;;;15.30;99.90;;;;;;5172729;27;20026;-56
2023/04/29 10:54:05;;;;;;;10.15;5.78;;;15.40;99.90;;;;;;5169914;27;20069;-51
2023/04/29 10:56:39;;;;;;;10.43;6.07;;;15.40;99.90;;;;;;5171349;27;20091;-59
2023/04/29 10:59:08;;;;;;;11.45;5.85;;;15.50;99.90;;;;;;5170624;27;20050;-55
2023/04/29 11:01:44;;;;;;;8.80;5.53;;;15.60;99.90;;;;;;5168204;27;20038;-55
2023/04/29 11:04:11;;;;;;;8.93;5.53;;;15.70;99.90;;;;;;5170502;27;20122;-54
2023/04/29 11:06:38;;;;;;;8.98;5.38;;;15.80;99.90;;;;;;5166264;27;20065;-57
2023/04/29 11:09:13;;;;;;;8.65;5.75;;;15.90;99.90;;;;;;5152500;27;21005;-55
2023/04/29 11:11:44;;;;;;;8.45;4.80;;;16.00;99.90;;;;;;5155878;27;20094;-59
2023/04/29 11:14:11;;;;;;;7.00;4.30;;;16.10;99.90;;;;;;5155940;27;20038;-55
2023/04/29 11:16:45;;;;;;;7.50;4.75;;;16.20;99.90;;;;;;5150588;27;20031;-59
2023/04/29 11:19:15;;;;;;;8.18;5.13;;;16.30;99.90;;;;;;5154112;27;20429;-53
2023/04/29 11:21:41;;;;;;;9.93;4.93;;;16.40;99.90;;;;;;5128934;27;20568;-54
2023/04/29 11:24:07;;;;;;;6.90;4.50;;;16.50;99.90;;;;;;5155394;27;20493;-59
2023/04/29 11:26:36;;;;;;;7.57;4.20;;;16.60;99.90;;;;;;5159395;27;20062;-59
2023/04/29 11:29:03;;;;;;;7.97;4.20;;;16.70;99.90;;;;;;5157756;27;20042;-59
2023/04/29 11:31:32;;;;;;;7.22;4.25;;;16.70;99.90;;;;;;5159147;27;20513;-59
2023/04/29 11:33:59;;;;;;;8.63;4.38;;;16.70;99.90;;;;;;5130260;27;20801;-54
2023/04/29 11:36:26;;;;;;;6.97;3.60;;;16.80;99.90;;;;;;5155048;27;20054;-55
2023/04/29 11:38:52;;;;;;;6.32;3.83;;;16.80;99.90;;;;;;5127976;27;20034;-57
2023/04/29 11:41:18;;;;;;;5.80;3.28;;;16.80;99.90;;;;;;5155030;27;20038;-59
2023/04/29 11:43:54;;;;;;;8.73;5.15;;;16.90;99.90;;;;;;5154128;27;20075;-56
2023/04/29 11:46:20;;;;;;;8.20;4.72;;;16.90;99.90;;;;;;5123318;27;20030;-57
2023/04/29 11:48:47;;;;;;;9.63;4.95;;;17.00;99.90;;;;;;5148631;27;20035;-57
2023/04/29 11:51:14;;;;;;;8.20;5.10;;;17.10;99.90;;;;;;5147960;27;20435;-58
2023/04/29 11:53:39;;;;;;;9.55;4.18;;;17.20;99.90;;;;;;5150288;27;20042;-57
2023/04/29 11:56:07;;;;;;;8.18;4.38;;;17.40;99.90;;;;;;5147549;27;20680;-58
2023/04/29 11:58:33;;;;;;;9.82;4.70;;;17.40;99.90;;;;;;5156159;27;20101;-56
2023/04/29 12:00:59;;;;;;;12.95;4.93;;;17.60;99.90;;;;;;5173447;27;20038;-54
2023/04/29 12:03:25;;;;;;;6.82;4.50;;;17.70;99.90;;;;;;5171506;27;20042;-54
2023/04/29 12:05:53;;;;;;;11.00;5.18;;;17.60;99.90;;;;;;5171472;27;20042;-55
2023/04/29 12:08:23;;;;;;;7.50;4.38;;;17.50;99.90;;;;;;5173087;27;20045;-57
2023/04/29 12:10:49;;;;;;;10.82;4.70;;;17.60;99.90;;;;;;5172366;27;20039;-54
2023/04/29 12:13:18;;;;;;;6.78;3.90;;;17.70;99.90;;;;;;5173586;27;20026;-52
2023/04/29 12:15:49;;;;;;;8.10;4.75;;;17.70;99.90;;;;;;5172611;27;20069;-57
2023/04/29 12:18:17;;;;;;;8.80;4.30;;;17.60;99.90;;;;;;5173481;27;20034;-56
2023/04/29 12:20:43;;;;;;;8.52;4.50;;;17.80;99.90;;;;;;5134494;27;20054;-60
2023/04/29 12:23:23;;;;;;;6.07;4.10;;;18.00;99.90;;;;;;5139256;27;20038;-59
2023/04/29 12:25:57;;;;;;;7.32;4.10;;;18.20;99.90;;;;;;5173577;27;20034;-56
2023/04/29 12:28:23;;;;;;;9.40;3.97;;;18.50;99.90;;;;;;5173527;27;20037;-60
2023/04/29 12:30:51;;;;;;;7.43;3.75;;;18.70;99.90;;;;;;5174418;27;20041;-59
2023/04/29 12:33:20;;;;;;;7.95;3.47;;;19.10;99.90;;;;;;5174057;27;20041;-57
2023/04/29 12:35:50;;;;;;;7.25;4.03;;;19.30;99.90;;;;;;5173539;27;20040;-55
2023/04/29 12:38:27;;;;;;;8.13;4.40;;;19.10;99.90;;;;;;5140522;27;20088;-58
2023/04/29 12:40:54;;;;;;;9.15;3.88;;;18.70;99.90;;;;;;5173845;27;20052;-58